Time;durP1;ratioP1;P1;durP2;ratioP2;P2;SDS_P1;SDS_P2;PMS_P1;PMS_P2;Temp;Humidity;BMP_temperature;BMP_pressure;BME280_temperature;BME280_humidity;BME280_pressure;Samples;Min_cycle;Max_cycle;Signal;HPM_P1;HPM_P2
2022/09/30 00:00:44;;;;;;;;;;;8.30;83.40;;;;;;5026319;28;20008;-85
2022/09/30 00:03:09;;;;;;;;;;;8.30;83.50;;;;;;5012767;28;20004;-86
2022/09/30 00:05:34;;;;;;;;;;;8.30;83.50;;;;;;5010568;28;19971;-85
2022/09/30 00:08:00;;;;;;;;;;;8.20;83.30;;;;;;5009941;28;19967;-85
2022/09/30 00:10:28;;;;;;;;;;;8.20;83.60;;;;;;5013868;28;20353;-85
2022/09/30 00:12:54;;;;;;;;;;;8.20;83.90;;;;;;5011193;28;19913;-84
2022/09/30 00:15:19;;;;;;;;;;;8.30;83.70;;;;;;5003355;28;20369;-85
2022/09/30 00:17:45;;;;;;;;;;;8.30;83.40;;;;;;5024070;28;19964;-85
2022/09/30 00:20:10;;;;;;;;;;;8.20;83.80;;;;;;5015923;28;19913;-85
2022/09/30 00:22:36;;;;;;;;;;;8.10;84.00;;;;;;5019911;28;20282;-85
2022/09/30 00:25:02;;;;;;;;;;;8.20;83.80;;;;;;5017024;28;19982;-84
2022/09/30 00:27:27;;;;;;;;;;;8.10;83.90;;;;;;5026919;28;20447;-85
2022/09/30 00:29:53;;;;;;;;;;;8.10;83.80;;;;;;5008425;28;19909;-85
2022/09/30 00:32:18;;;;;;;;;;;8.10;83.80;;;;;;5027656;28;20400;-85
2022/09/30 00:34:44;;;;;;;;;;;8.20;83.80;;;;;;5013633;28;19989;-85
2022/09/30 00:37:13;;;;;;;;;;;8.10;83.80;;;;;;5027483;28;19913;-85
2022/09/30 00:39:39;;;;;;;;;;;8.10;83.80;;;;;;5014519;28;19918;-84
2022/09/30 00:42:07;;;;;;;;;;;8.10;83.60;;;;;;5004565;28;19960;-84
2022/09/30 00:44:50;;;;;;;;;;;8.10;83.90;;;;;;5016240;28;19917;-85
2022/09/30 00:47:27;;;;;;;;;;;8.10;84.10;;;;;;5036956;28;19920;-86
2022/09/30 00:49:54;;;;;;;;;;;8.00;83.90;;;;;;5050117;28;19917;-84
2022/09/30 00:52:19;;;;;;;;;;;8.00;83.80;;;;;;5038114;28;19913;-84
2022/09/30 00:54:45;;;;;;;;;;;8.00;83.90;;;;;;5049322;28;20013;-85
2022/09/30 00:57:10;;;;;;;;;;;7.90;83.90;;;;;;5009243;28;20433;-84
2022/09/30 00:59:37;;;;;;;;;;;7.90;83.80;;;;;;5027081;28;20352;-86
2022/09/30 01:02:04;;;;;;;;;;;7.90;83.90;;;;;;5029034;28;19945;-85
2022/09/30 01:04:31;;;;;;;;;;;8.00;83.70;;;;;;5033383;28;19913;-84
2022/09/30 01:07:04;;;;;;;;;;;8.00;83.60;;;;;;5006785;28;19913;-84
2022/09/30 01:09:32;;;;;;;;;;;7.90;83.90;;;;;;5020930;28;19971;-84
2022/09/30 01:11:58;;;;;;;;;;;7.90;84.40;;;;;;5008737;28;19991;-85
2022/09/30 01:14:26;;;;;;;;;;;7.90;84.20;;;;;;5024802;28;19913;-84
2022/09/30 01:17:05;;;;;;;;;;;7.90;84.30;;;;;;5017419;28;19920;-83
2022/09/30 01:19:34;;;;;;;;;;;7.90;84.10;;;;;;5006522;28;20373;-84
2022/09/30 01:22:18;;;;;;;;;;;7.90;83.90;;;;;;5009592;28;20310;-84
2022/09/30 01:24:56;;;;;;;;;;;7.80;84.50;;;;;;5004368;28;20050;-85
2022/09/30 01:27:21;;;;;;;;;;;7.80;84.40;;;;;;5013064;28;19992;-84
2022/09/30 01:30:06;;;;;;;;;;;7.80;84.20;;;;;;5009520;28;19956;-84
2022/09/30 01:32:37;;;;;;;;;;;7.90;83.60;;;;;;4999304;28;19918;-84
2022/09/30 01:35:18;;;;;;;;;;;7.90;83.50;;;;;;5008066;28;19913;-85
2022/09/30 01:37:57;;;;;;;;;;;7.90;83.60;;;;;;5026595;28;19913;-85
2022/09/30 01:40:34;;;;;;;;;;;7.80;83.90;;;;;;5011165;28;19928;-85
2022/09/30 01:43:31;;;;;;;;;;;7.80;84.10;;;;;;5026071;28;19917;-84
2022/09/30 01:45:58;;;;;;;;;;;7.80;83.90;;;;;;5005793;28;20389;-85
2022/09/30 01:48:27;;;;;;;;;;;7.70;84.00;;;;;;5002773;28;19992;-84
2022/09/30 01:50:59;;;;;;;;;;;7.70;84.20;;;;;;5015537;28;20320;-84
2022/09/30 01:53:29;;;;;;;;;;;7.80;84.20;;;;;;5010170;28;19917;-85
2022/09/30 01:56:14;;;;;;;;;;;7.60;84.30;;;;;;5029582;28;20331;-85
2022/09/30 01:58:51;;;;;;;;;;;7.70;84.20;;;;;;5028560;28;20401;-84
2022/09/30 02:01:20;;;;;;;;;;;7.60;84.20;;;;;;5003509;28;19921;-84
2022/09/30 02:03:48;;;;;;;;;;;7.60;84.40;;;;;;5010213;28;19917;-84
2022/09/30 02:06:22;;;;;;;;;;;7.70;84.50;;;;;;5016302;28;19913;-84
2022/09/30 02:09:24;;;;;;;;;;;7.70;84.60;;;;;;5007897;28;19924;-84
2022/09/30 02:11:50;;;;;;;;;;;7.60;84.90;;;;;;4952809;28;19915;-85
2022/09/30 02:14:25;;;;;;;;;;;7.70;84.90;;;;;;4990281;28;19939;-85
2022/09/30 02:17:07;;;;;;;;;;;7.80;85.00;;;;;;5005267;28;20293;-84
2022/09/30 02:19:35;;;;;;;;;;;7.80;84.90;;;;;;5026889;28;19917;-84
2022/09/30 02:22:16;;;;;;;;;;;7.90;84.50;;;;;;5009702;28;19914;-84
2022/09/30 02:24:44;;;;;;;;;;;7.80;84.10;;;;;;5011999;28;20003;-85
2022/09/30 02:27:22;;;;;;;;;;;7.80;84.00;;;;;;5014254;28;20000;-84
2022/09/30 02:29:50;;;;;;;;;;;7.80;83.80;;;;;;5014344;28;19913;-84
2022/09/30 02:32:19;;;;;;;;;;;7.70;84.00;;;;;;5022118;28;19924;-84
2022/09/30 02:34:48;;;;;;;;;;;7.70;84.20;;;;;;5013692;28;19960;-83
2022/09/30 02:37:20;;;;;;;;;;;7.60;84.30;;;;;;5028854;28;20011;-84
2022/09/30 02:39:46;;;;;;;;;;;7.60;84.30;;;;;;5004884;28;19914;-85
2022/09/30 02:42:31;;;;;;;;;;;7.60;84.50;;;;;;5013606;28;19928;-84
2022/09/30 02:45:09;;;;;;;;;;;7.60;84.50;;;;;;5031654;28;20464;-85
2022/09/30 02:47:37;;;;;;;;;;;7.60;84.50;;;;;;5015182;28;19921;-85
2022/09/30 02:50:11;;;;;;;;;;;7.60;84.90;;;;;;5025602;28;20007;-85
2022/09/30 02:52:36;;;;;;;;;;;7.60;84.70;;;;;;5015829;28;19920;-85
2022/09/30 02:55:11;;;;;;;;;;;7.60;84.40;;;;;;5006774;28;19913;-84
2022/09/30 02:58:12;;;;;;;;;;;7.60;84.20;;;;;;5021388;28;19920;-85
2022/09/30 03:00:38;;;;;;;;;;;7.60;84.20;;;;;;4950841;28;19958;-84
2022/09/30 03:03:06;;;;;;;;;;;7.50;84.30;;;;;;4991983;28;19920;-84
2022/09/30 03:05:31;;;;;;;;;;;7.60;84.30;;;;;;5029851;28;19913;-84
2022/09/30 03:07:57;;;;;;;;;;;7.60;84.40;;;;;;5035450;28;19914;-85
2022/09/30 03:10:23;;;;;;;;;;;7.60;84.30;;;;;;5033984;28;19920;-85
2022/09/30 03:12:48;;;;;;;;;;;7.60;84.50;;;;;;5031257;28;19949;-84
2022/09/30 03:15:29;;;;;;;;;;;7.60;84.70;;;;;;5010280;28;19979;-85
2022/09/30 03:18:07;;;;;;;;;;;7.60;84.40;;;;;;5024740;28;20309;-85
2022/09/30 03:20:50;;;;;;;;;;;7.60;84.20;;;;;;5015634;28;19956;-85
2022/09/30 03:23:33;;;;;;;;;;;7.60;84.20;;;;;;5033701;28;19924;-85
2022/09/30 03:26:06;;;;;;;;;;;7.70;83.30;;;;;;5037078;28;19917;-85
2022/09/30 03:28:33;;;;;;;;;;;7.60;83.80;;;;;;5022621;28;19942;-84
2022/09/30 03:31:04;;;;;;;;;;;7.60;83.80;;;;;;5006584;28;20692;-85
2022/09/30 03:33:37;;;;;;;;;;;7.60;83.80;;;;;;5032532;28;19973;-85
2022/09/30 03:36:11;;;;;;;;;;;7.50;83.70;;;;;;5006224;28;19952;-85
2022/09/30 03:38:50;;;;;;;;;;;7.50;83.60;;;;;;5032910;28;20466;-85
2022/09/30 03:41:16;;;;;;;;;;;7.40;83.80;;;;;;5016960;28;20410;-85
2022/09/30 03:43:48;;;;;;;;;;;7.30;84.20;;;;;;5036383;28;19963;-85
2022/09/30 03:46:33;;;;;;;;;;;7.30;84.50;;;;;;5033629;28;20292;-84
2022/09/30 03:49:00;;;;;;;;;;;7.30;84.60;;;;;;5015479;28;19952;-85
2022/09/30 03:51:28;;;;;;;;;;;7.30;84.80;;;;;;5023147;28;19992;-84
2022/09/30 03:53:54;;;;;;;;;;;7.20;84.50;;;;;;5005518;28;19960;-84
2022/09/30 03:56:23;;;;;;;;;;;7.30;84.50;;;;;;5006270;28;19909;-85
2022/09/30 03:58:49;;;;;;;;;;;7.30;84.60;;;;;;5022504;28;19917;-84
2022/09/30 04:01:22;;;;;;;;;;;7.30;84.40;;;;;;5023725;28;19920;-83
2022/09/30 04:03:51;;;;;;;;;;;7.30;84.60;;;;;;5030957;28;19913;-84
2022/09/30 04:06:17;;;;;;;;;;;7.30;84.90;;;;;;5007323;28;19971;-85
2022/09/30 04:08:43;;;;;;;;;;;7.40;85.10;;;;;;5018165;28;20008;-83
2022/09/30 04:11:09;;;;;;;;;;;7.40;84.90;;;;;;5007242;28;19949;-84
2022/09/30 04:13:34;;;;;;;;;;;7.30;84.80;;;;;;5029865;22;19968;-81
2022/09/30 04:16:00;;;;;;;;;;;7.30;85.20;;;;;;5000714;28;19917;-81
2022/09/30 04:18:25;;;;;;;;;;;7.40;85.30;;;;;;5013965;28;20068;-82
2022/09/30 04:20:51;;;;;;;;;;;7.50;84.90;;;;;;5020603;28;19917;-82
2022/09/30 04:23:16;;;;;;;;;;;7.50;84.40;;;;;;4992429;28;19914;-82
2022/09/30 04:25:42;;;;;;;;;;;7.40;84.30;;;;;;5001710;28;20004;-82
2022/09/30 04:28:07;;;;;;;;;;;7.40;84.70;;;;;;5000103;28;19918;-82
2022/09/30 04:30:32;;;;;;;;;;;7.50;84.50;;;;;;4985310;28;19961;-81
2022/09/30 04:32:58;;;;;;;;;;;7.40;84.40;;;;;;4997434;28;19910;-82
2022/09/30 04:35:23;;;;;;;;;;;7.50;84.30;;;;;;5029770;28;19922;-80
2022/09/30 04:37:49;;;;;;;;;;;7.50;84.20;;;;;;4975880;28;19959;-82
2022/09/30 04:40:15;;;;;;;;;;;7.40;84.20;;;;;;5001173;28;19917;-82
2022/09/30 04:42:41;;;;;;;;;;;7.40;84.80;;;;;;5000424;28;19914;-82
2022/09/30 04:45:11;;;;;;;;;;;7.40;84.60;;;;;;4998015;28;19921;-82
2022/09/30 04:47:36;;;;;;;;;;;7.30;84.70;;;;;;5003043;28;19913;-81
2022/09/30 04:50:03;;;;;;;;;;;7.40;84.50;;;;;;5000597;28;19924;-82
2022/09/30 04:52:29;;;;;;;;;;;7.50;84.40;;;;;;4992719;28;19936;-82
2022/09/30 04:54:54;;;;;;;;;;;7.40;84.40;;;;;;4983124;28;20379;-81
2022/09/30 04:57:20;;;;;;;;;;;7.50;84.20;;;;;;4996538;28;19920;-82
2022/09/30 04:59:45;;;;;;;;;;;7.50;84.30;;;;;;5000147;28;19924;-82
2022/09/30 05:02:12;;;;;;;;;;;7.40;84.20;;;;;;5001591;28;19914;-81
2022/09/30 05:04:37;;;;;;;;;;;7.30;84.40;;;;;;5000026;28;20529;-81
2022/09/30 05:07:07;;;;;;;;;;;7.30;84.30;;;;;;4998989;28;19925;-82
2022/09/30 05:09:35;;;;;;;;;;;7.20;84.60;;;;;;5003270;28;19914;-83
2022/09/30 05:12:02;;;;;;;;;;;7.30;84.40;;;;;;4984757;28;19937;-83
2022/09/30 05:14:28;;;;;;;;;;;7.20;84.20;;;;;;4989338;28;19945;-83
2022/09/30 05:16:53;;;;;;;;;;;7.20;83.70;;;;;;4968972;28;19929;-83
2022/09/30 05:19:19;;;;;;;;;;;7.20;83.90;;;;;;4963491;28;19918;-82
2022/09/30 05:21:45;;;;;;;;;;;7.20;83.90;;;;;;4964155;28;19973;-83
2022/09/30 05:24:12;;;;;;;;;;;7.10;84.10;;;;;;4962143;28;19914;-87
2022/09/30 05:26:39;;;;;;;;;;;7.00;84.20;;;;;;4979137;28;19921;-83
2022/09/30 05:29:05;;;;;;;;;;;7.00;84.40;;;;;;4986435;28;19914;-86
2022/09/30 05:31:30;;;;;;;;;;;7.10;84.50;;;;;;4962289;28;20308;-83
2022/09/30 05:33:56;;;;;;;;;;;7.10;84.20;;;;;;4975166;28;19922;-86
2022/09/30 05:36:21;;;;;;;;;;;7.10;84.20;;;;;;4970210;28;20017;-85
2022/09/30 05:38:49;;;;;;;;;;;7.00;84.10;;;;;;4967717;28;19929;-87
2022/09/30 05:41:15;;;;;;;;;;;6.90;84.30;;;;;;4967036;28;19914;-88
2022/09/30 05:43:41;;;;;;;;;;;6.90;84.60;;;;;;4973701;28;19914;-85
2022/09/30 05:46:06;;;;;;;;;;;6.90;84.50;;;;;;4988056;28;19921;-84
2022/09/30 05:48:33;;;;;;;;;;;7.00;84.40;;;;;;4984022;28;20025;-86
2022/09/30 05:51:00;;;;;;;;;;;7.00;84.70;;;;;;4984185;28;20284;-85
2022/09/30 05:53:26;;;;;;;;;;;7.00;84.70;;;;;;4991415;28;19921;-85
2022/09/30 05:55:52;;;;;;;;;;;7.00;84.80;;;;;;5016185;28;19917;-85
2022/09/30 05:58:17;;;;;;;;;;;7.10;84.20;;;;;;4978214;28;19918;-85
2022/09/30 06:03:44;;;;;;;;;;;7.10;84.60;;;;;;5000768;28;19933;-85
2022/09/30 06:06:10;;;;;;;;;;;7.20;84.90;;;;;;4981822;28;20372;-85
2022/09/30 06:08:40;;;;;;;;;;;7.20;84.80;;;;;;4995536;28;19921;-84
2022/09/30 06:11:19;;;;;;;;;;;7.20;85.00;;;;;;5022817;28;19952;-85
2022/09/30 06:13:46;;;;;;;;;;;7.20;85.20;;;;;;5022767;28;19926;-85
2022/09/30 06:16:12;;;;;;;;;;;7.20;85.40;;;;;;4976527;28;19949;-85
2022/09/30 06:18:40;;;;;;;;;;;7.30;85.60;;;;;;4974635;28;19924;-84
2022/09/30 06:21:06;;;;;;;;;;;7.40;85.30;;;;;;4985099;28;19916;-86
2022/09/30 06:23:33;;;;;;;;;;;7.40;85.50;;;;;;5010675;28;19914;-85
2022/09/30 06:26:00;;;;;;;;;;;7.50;85.40;;;;;;4991139;28;19906;-84
2022/09/30 06:28:26;;;;;;;;;;;7.50;85.40;;;;;;4974506;28;19914;-85
2022/09/30 06:30:51;;;;;;;;;;;7.60;85.70;;;;;;4979752;28;20392;-85
2022/09/30 06:33:17;;;;;;;;;;;7.60;85.90;;;;;;4995558;28;19922;-83
2022/09/30 06:35:42;;;;;;;;;;;7.70;85.90;;;;;;4992249;28;19960;-87
2022/09/30 06:38:09;;;;;;;;;;;7.80;86.00;;;;;;4985530;28;19921;-87
2022/09/30 06:40:34;;;;;;;;;;;7.90;85.60;;;;;;4984270;28;19917;-87
2022/09/30 06:43:00;;;;;;;;;;;8.00;85.70;;;;;;4985103;28;20268;-87
2022/09/30 06:45:26;;;;;;;;;;;8.00;85.80;;;;;;4992175;28;19917;-88
2022/09/30 06:47:59;;;;;;;;;;;8.00;85.70;;;;;;4982762;28;19914;-86
2022/09/30 06:50:24;;;;;;;;;;;8.10;85.50;;;;;;4990617;28;19977;-87
2022/09/30 06:52:50;;;;;;;;;;;8.10;85.40;;;;;;4984295;28;20340;-87
2022/09/30 06:55:16;;;;;;;;;;;8.30;84.90;;;;;;4980368;28;19913;-88
2022/09/30 06:57:43;;;;;;;;;;;8.30;84.90;;;;;;4980854;28;19908;-86
2022/09/30 07:00:09;;;;;;;;;;;8.30;85.10;;;;;;5011418;28;19908;-87
2022/09/30 07:02:35;;;;;;;;;;;8.30;85.20;;;;;;4988395;28;19917;-87
2022/09/30 07:05:02;;;;;;;;;;;8.40;85.10;;;;;;4998896;28;19910;-87
2022/09/30 07:07:28;;;;;;;;;;;8.60;84.80;;;;;;4997290;28;20441;-86
2022/09/30 07:09:54;;;;;;;;;;;8.60;84.50;;;;;;4975557;28;20000;-85
2022/09/30 07:12:19;;;;;;;;;;;8.70;84.20;;;;;;5005896;28;19909;-85
2022/09/30 07:14:45;;;;;;;;;;;8.80;83.90;;;;;;5011377;28;20294;-86
2022/09/30 07:17:10;;;;;;;;;;;8.80;84.00;;;;;;5010303;28;19937;-85
2022/09/30 07:19:35;;;;;;;;;;;9.00;83.70;;;;;;4985217;28;19921;-86
2022/09/30 07:24:45;;;;;;;;;;;9.10;83.50;;;;;;5000514;28;19941;-85
2022/09/30 07:27:12;;;;;;;;;;;9.20;83.00;;;;;;5002407;28;19914;-87
2022/09/30 07:29:38;;;;;;;;;;;9.20;82.90;;;;;;4988153;28;19952;-86
2022/09/30 07:32:04;;;;;;;;;;;9.10;82.70;;;;;;4975719;28;19913;-86
2022/09/30 07:34:29;;;;;;;;;;;9.20;82.80;;;;;;4977933;28;20013;-86
2022/09/30 07:36:55;;;;;;;;;;;9.30;83.00;;;;;;4987990;28;19916;-86
2022/09/30 07:39:20;;;;;;;;;;;9.30;83.10;;;;;;4967233;28;19925;-83
2022/09/30 07:41:46;;;;;;;;;;;9.40;83.10;;;;;;4977793;28;20384;-83
2022/09/30 07:44:13;;;;;;;;;;;9.60;82.30;;;;;;4993120;28;19922;-84
2022/09/30 07:46:39;;;;;;;;;;;9.60;82.30;;;;;;4999699;28;20608;-84
2022/09/30 07:49:07;;;;;;;;;;;9.60;82.50;;;;;;4980257;28;19953;-83
2022/09/30 07:51:34;;;;;;;;;;;9.60;82.40;;;;;;4999065;28;20501;-84
2022/09/30 07:54:03;;;;;;;;;;;9.70;82.20;;;;;;5019169;28;19939;-84
2022/09/30 07:56:28;;;;;;;;;;;9.60;82.50;;;;;;5020531;28;20125;-84
2022/09/30 07:58:54;;;;;;;;;;;9.70;82.60;;;;;;4997825;28;19926;-84
2022/09/30 08:01:20;;;;;;;;;;;9.80;82.80;;;;;;5005167;28;19917;-83
2022/09/30 08:03:46;;;;;;;;;;;9.80;82.80;;;;;;4996653;28;19913;-85
2022/09/30 08:06:15;;;;;;;;;;;9.90;82.80;;;;;;4974921;28;19913;-83
2022/09/30 08:08:43;;;;;;;;;;;10.00;82.50;;;;;;4969836;28;19942;-87
2022/09/30 08:11:08;;;;;;;;;;;10.00;82.70;;;;;;5005831;28;19920;-86
2022/09/30 08:13:34;;;;;;;;;;;10.10;82.40;;;;;;4999167;28;19965;-86
2022/09/30 08:16:00;;;;;;;;;;;10.30;81.60;;;;;;4975803;28;19968;-86
2022/09/30 08:18:26;;;;;;;;;;;10.30;81.80;;;;;;4969456;28;19965;-86
2022/09/30 08:20:52;;;;;;;;;;;10.40;82.00;;;;;;4993411;28;20405;-86
2022/09/30 08:23:17;;;;;;;;;;;10.40;82.00;;;;;;4991675;28;19934;-86
2022/09/30 08:25:43;;;;;;;;;;;10.50;81.80;;;;;;4986364;28;20332;-86
2022/09/30 08:28:08;;;;;;;;;;;10.70;81.10;;;;;;4976744;28;19910;-87
2022/09/30 08:30:34;;;;;;;;;;;10.80;80.30;;;;;;4975955;28;20292;-85
2022/09/30 08:33:00;;;;;;;;;;;11.00;79.80;;;;;;4973511;28;19914;-86
2022/09/30 08:35:25;;;;;;;;;;;11.00;79.70;;;;;;5000041;28;19913;-86
2022/09/30 08:37:51;;;;;;;;;;;11.00;79.50;;;;;;4993885;28;19914;-86
2022/09/30 08:40:22;;;;;;;;;;;11.00;80.00;;;;;;4991912;28;19913;-86
2022/09/30 08:43:07;;;;;;;;;;;11.00;79.40;;;;;;4974199;28;19921;-87
2022/09/30 08:45:42;;;;;;;;;;;11.20;78.90;;;;;;4993777;28;19921;-87
2022/09/30 08:48:17;;;;;;;;;;;11.30;79.00;;;;;;4993910;28;19920;-87
2022/09/30 08:50:45;;;;;;;;;;;11.40;78.70;;;;;;4999544;28;19977;-86
2022/09/30 08:53:14;;;;;;;;;;;11.40;79.00;;;;;;4964124;28;19914;-86
2022/09/30 08:55:44;;;;;;;;;;;11.40;80.00;;;;;;4973996;28;20057;-86
2022/09/30 08:58:24;;;;;;;;;;;11.50;79.10;;;;;;4986356;28;19922;-86
2022/09/30 09:00:51;;;;;;;;;;;11.60;78.50;;;;;;4973734;28;19913;-86
2022/09/30 09:03:19;;;;;;;;;;;11.70;78.10;;;;;;4982180;28;19921;-86
2022/09/30 09:06:08;;;;;;;;;;;11.80;78.00;;;;;;4979785;28;19921;-87
2022/09/30 09:08:48;;;;;;;;;;;12.10;77.70;;;;;;4970165;28;20013;-86
2022/09/30 09:11:32;;;;;;;;;;;12.00;77.90;;;;;;4987588;28;19926;-86
2022/09/30 09:14:19;;;;;;;;;;;12.00;77.70;;;;;;5001569;28;19913;-86
2022/09/30 09:16:51;;;;;;;;;;;12.10;77.90;;;;;;4999098;28;19928;-87
2022/09/30 09:19:18;;;;;;;;;;;12.10;77.90;;;;;;4970633;28;19929;-86
2022/09/30 09:21:52;;;;;;;;;;;12.30;77.20;;;;;;4971536;28;20001;-86
2022/09/30 09:24:23;;;;;;;;;;;12.30;77.00;;;;;;4967176;28;21620;-88
2022/09/30 09:26:49;;;;;;;;;;;12.30;76.80;;;;;;4971007;28;19914;-87
2022/09/30 09:29:26;;;;;;;;;;;12.50;76.90;;;;;;4972872;28;19918;-85
2022/09/30 09:31:56;;;;;;;;;;;12.50;76.40;;;;;;4973736;28;19976;-85
2022/09/30 09:34:22;;;;;;;;;;;12.50;76.10;;;;;;4981664;28;19916;-84
2022/09/30 09:37:04;;;;;;;;;;;12.50;75.80;;;;;;5010269;28;19936;-84
2022/09/30 09:39:29;;;;;;;;;;;12.80;75.80;;;;;;4984721;28;19914;-85
2022/09/30 09:42:15;;;;;;;;;;;12.80;76.00;;;;;;4981574;28;19941;-85
2022/09/30 09:44:55;;;;;;;;;;;12.80;75.40;;;;;;4993716;28;19914;-84
2022/09/30 09:47:20;;;;;;;;;;;12.90;74.50;;;;;;4964210;28;19917;-85
2022/09/30 09:49:54;;;;;;;;;;;12.80;74.10;;;;;;4993142;28;20304;-85
2022/09/30 09:52:29;;;;;;;;;;;12.80;75.30;;;;;;4976332;28;19914;-85
2022/09/30 09:54:55;;;;;;;;;;;12.90;75.20;;;;;;4972455;28;19910;-86
2022/09/30 09:57:23;;;;;;;;;;;12.90;74.60;;;;;;4962989;28;19952;-85
2022/09/30 10:03:17;;;;;;;;;;;13.10;72.10;;;;;;4996372;28;19921;-87
2022/09/30 10:05:43;;;;;;;;;;;13.20;71.70;;;;;;5011274;28;19918;-86
2022/09/30 10:08:08;;;;;;;;;;;13.40;71.30;;;;;;4989649;28;19981;-87
2022/09/30 10:10:42;;;;;;;;;;;13.40;70.90;;;;;;4988546;28;19910;-86
2022/09/30 10:13:18;;;;;;;;;;;13.50;70.00;;;;;;4974115;28;19914;-86
2022/09/30 10:15:44;;;;;;;;;;;13.50;69.40;;;;;;5074302;23;20313;-81
2022/09/30 10:18:18;;;;;;;;;;;13.60;69.10;;;;;;4993819;28;19918;-81
2022/09/30 10:20:49;;;;;;;;;;;13.50;68.90;;;;;;4988706;28;19914;-80
2022/09/30 10:23:18;;;;;;;;;;;13.40;69.10;;;;;;4995397;28;19914;-80
2022/09/30 10:26:04;;;;;;;;;;;13.60;69.40;;;;;;4976539;28;20021;-81
2022/09/30 10:28:31;;;;;;;;;;;13.60;69.40;;;;;;4986893;28;20449;-81
2022/09/30 10:30:59;;;;;;;;;;;13.60;68.80;;;;;;4983844;28;20298;-83
2022/09/30 10:33:26;;;;;;;;;;;13.60;68.90;;;;;;4993838;28;19921;-81
2022/09/30 10:35:59;;;;;;;;;;;13.70;68.10;;;;;;4990658;28;20374;-80
2022/09/30 10:38:28;;;;;;;;;;;13.80;67.90;;;;;;4979274;28;19976;-80
2022/09/30 10:40:53;;;;;;;;;;;13.80;67.80;;;;;;4970982;28;19914;-82
2022/09/30 10:43:27;;;;;;;;;;;13.90;67.90;;;;;;4992463;28;19913;-82
2022/09/30 10:45:53;;;;;;;;;;;14.10;67.90;;;;;;4990610;28;19921;-82
2022/09/30 10:48:20;;;;;;;;;;;14.10;67.90;;;;;;4976671;28;19921;-82
2022/09/30 10:50:50;;;;;;;;;;;14.10;68.40;;;;;;4968409;28;20378;-81
2022/09/30 10:53:20;;;;;;;;;;;14.30;67.90;;;;;;4992031;28;19941;-81
2022/09/30 10:55:46;;;;;;;;;;;14.20;67.50;;;;;;4971179;28;19914;-81
2022/09/30 10:58:30;;;;;;;;;;;14.50;65.70;;;;;;4998213;28;19922;-81
2022/09/30 11:00:58;;;;;;;;;;;14.50;65.10;;;;;;5000431;28;19920;-80
2022/09/30 11:03:27;;;;;;;;;;;14.60;64.50;;;;;;4985189;28;19914;-81
2022/09/30 11:05:55;;;;;;;;;;;14.60;64.20;;;;;;4987022;28;20019;-81
2022/09/30 11:08:37;;;;;;;;;;;14.90;63.60;;;;;;4992623;28;19910;-81
2022/09/30 11:11:39;;;;;;;;;;;15.00;64.40;;;;;;4996790;28;19936;-81
2022/09/30 11:14:10;;;;;;;;;;;15.10;62.30;;;;;;4934589;29;19925;-81
2022/09/30 11:16:40;;;;;;;;;;;15.00;62.90;;;;;;4967497;28;19921;-81
2022/09/30 11:19:24;;;;;;;;;;;15.20;62.90;;;;;;4995665;28;19921;-80
2022/09/30 11:21:55;;;;;;;;;;;15.20;62.20;;;;;;4974623;28;19913;-81
2022/09/30 11:24:27;;;;;;;;;;;15.10;61.10;;;;;;4978191;28;19930;-82
2022/09/30 11:27:11;;;;;;;;;;;15.20;61.00;;;;;;4991196;28;19943;-82
2022/09/30 11:30:00;;;;;;;;;;;15.50;60.60;;;;;;4974400;28;20004;-87
2022/09/30 11:32:42;;;;;;;;;;;15.60;60.40;;;;;;4976858;28;20374;-87
2022/09/30 11:35:17;;;;;;;;;;;15.60;59.30;;;;;;4970395;28;20646;-87
2022/09/30 11:37:45;;;;;;;;;;;15.50;60.10;;;;;;4984541;28;19910;-80
2022/09/30 11:40:46;;;;;;;;;;;15.60;59.40;;;;;;4992553;28;19918;-82
2022/09/30 11:43:32;;;;;;;;;;;15.80;59.10;;;;;;4947570;29;20410;-81
2022/09/30 11:46:07;;;;;;;;;;;15.90;59.40;;;;;;4949745;28;20303;-82
2022/09/30 11:48:55;;;;;;;;;;;16.10;58.80;;;;;;4980787;28;19917;-83
2022/09/30 11:51:46;;;;;;;;;;;16.20;58.40;;;;;;4980684;28;19920;-83
2022/09/30 11:54:28;;;;;;;;;;;16.00;58.40;;;;;;4994144;28;20242;-82
2022/09/30 11:57:08;;;;;;;;;;;16.10;58.60;;;;;;4970695;28;19920;-85
2022/09/30 11:59:40;;;;;;;;;;;15.80;58.40;;;;;;4967859;28;19941;-82
2022/09/30 12:02:17;;;;;;;;;;;15.70;59.60;;;;;;4965942;28;19960;-84
2022/09/30 12:04:44;;;;;;;;;;;15.50;59.90;;;;;;4987477;28;19966;-84
2022/09/30 12:07:09;;;;;;;;;;;15.50;59.90;;;;;;4990184;28;19932;-83
2022/09/30 12:09:43;;;;;;;;;;;15.50;59.30;;;;;;4977520;28;19922;-82
2022/09/30 12:12:15;;;;;;;;;;;15.40;58.50;;;;;;4988829;28;19933;-84
2022/09/30 12:15:01;;;;;;;;;;;15.40;59.30;;;;;;4988606;28;19949;-83
2022/09/30 12:17:26;;;;;;;;;;;15.40;58.50;;;;;;4996303;28;19997;-84
2022/09/30 12:19:54;;;;;;;;;;;15.30;59.30;;;;;;4993248;28;20369;-84
2022/09/30 12:22:23;;;;;;;;;;;15.40;58.80;;;;;;4992546;28;20400;-82
2022/09/30 12:24:48;;;;;;;;;;;15.40;58.80;;;;;;4992926;28;19913;-83
2022/09/30 12:27:14;;;;;;;;;;;15.40;57.90;;;;;;4974438;28;19936;-83
2022/09/30 12:30:17;;;;;;;;;;;15.40;58.10;;;;;;4986508;28;19915;-83
2022/09/30 12:33:02;;;;;;;;;;;15.50;58.90;;;;;;4965059;28;20255;-85
2022/09/30 12:35:42;;;;;;;;;;;15.40;59.10;;;;;;4985993;28;19917;-82
2022/09/30 12:38:07;;;;;;;;;;;15.30;59.20;;;;;;4990070;28;19918;-84
2022/09/30 12:40:54;;;;;;;;;;;15.40;59.60;;;;;;4967575;28;21339;-85
2022/09/30 12:43:32;;;;;;;;;;;15.40;59.40;;;;;;4992932;28;19988;-83
2022/09/30 12:46:12;;;;;;;;;;;15.50;59.60;;;;;;4968780;28;19921;-83
2022/09/30 12:48:43;;;;;;;;;;;15.60;58.30;;;;;;4990032;28;20385;-83
2022/09/30 12:51:10;;;;;;;;;;;15.60;60.10;;;;;;4967887;28;20052;-83
2022/09/30 12:53:37;;;;;;;;;;;15.60;57.50;;;;;;4972697;28;19922;-84
2022/09/30 12:56:04;;;;;;;;;;;15.60;57.50;;;;;;4989854;28;19947;-83
2022/09/30 12:58:32;;;;;;;;;;;15.50;58.60;;;;;;4986980;28;20099;-84
2022/09/30 13:01:06;;;;;;;;;;;15.60;58.00;;;;;;4973385;28;20083;-84
2022/09/30 13:03:44;;;;;;;;;;;15.70;57.50;;;;;;4995704;28;19925;-83
2022/09/30 13:06:09;;;;;;;;;;;15.80;56.60;;;;;;4990067;28;19918;-82
2022/09/30 13:08:44;;;;;;;;;;;15.90;56.70;;;;;;4969164;28;19928;-82
2022/09/30 13:11:30;;;;;;;;;;;16.00;54.90;;;;;;4974806;28;20001;-81
2022/09/30 13:13:59;;;;;;;;;;;15.90;55.40;;;;;;4989910;28;20337;-82
2022/09/30 13:16:46;;;;;;;;;;;15.90;55.30;;;;;;4976261;28;20282;-81
2022/09/30 13:19:19;;;;;;;;;;;15.80;55.20;;;;;;4991996;28;19922;-82
2022/09/30 13:21:44;;;;;;;;;;;15.90;55.60;;;;;;4973648;28;20016;-81
2022/09/30 13:24:10;;;;;;;;;;;16.00;54.90;;;;;;4990354;28;19956;-80
2022/09/30 13:26:39;;;;;;;;;;;16.00;54.80;;;;;;4973397;28;20424;-82
2022/09/30 13:29:25;;;;;;;;;;;16.00;55.00;;;;;;4970605;28;19914;-81
2022/09/30 13:31:50;;;;;;;;;;;16.00;55.60;;;;;;4980468;28;19921;-82
2022/09/30 13:34:24;;;;;;;;;;;16.20;55.80;;;;;;4972597;28;20267;-81
2022/09/30 13:36:49;;;;;;;;;;;16.10;54.80;;;;;;4994931;28;19914;-82
2022/09/30 13:39:19;;;;;;;;;;;16.10;53.50;;;;;;4989972;28;19945;-82
2022/09/30 13:41:49;;;;;;;;;;;16.10;54.80;;;;;;5013101;28;20294;-82
2022/09/30 13:44:18;;;;;;;;;;;16.20;55.70;;;;;;5012884;28;19921;-81
2022/09/30 13:46:48;;;;;;;;;;;16.10;54.70;;;;;;4986237;28;19972;-79
2022/09/30 13:49:43;;;;;;;;;;;16.00;55.30;;;;;;4995153;28;21249;-79
2022/09/30 13:52:16;;;;;;;;;;;16.10;54.50;;;;;;4970802;28;19953;-79
2022/09/30 13:54:46;;;;;;;;;;;16.10;53.80;;;;;;4981282;28;19936;-79
2022/09/30 13:57:16;;;;;;;;;;;16.30;54.70;;;;;;4996636;28;19940;-81
2022/09/30 13:59:45;;;;;;;;;;;16.30;55.20;;;;;;4991502;28;19961;-79
2022/09/30 14:02:26;;;;;;;;;;;16.30;55.10;;;;;;4968716;28;19969;-78
2022/09/30 14:05:07;;;;;;;;;;;16.20;55.20;;;;;;4988134;28;19918;-79
2022/09/30 14:07:51;;;;;;;;;;;16.20;55.20;;;;;;4986185;28;19914;-79
2022/09/30 14:10:35;;;;;;;;;;;16.10;54.90;;;;;;4990698;28;20001;-78
2022/09/30 14:13:19;;;;;;;;;;;16.10;54.70;;;;;;4988433;28;19964;-79
2022/09/30 14:15:56;;;;;;;;;;;16.00;55.00;;;;;;4984923;28;19926;-78
2022/09/30 14:18:27;;;;;;;;;;;16.10;54.60;;;;;;4988670;28;19964;-80
2022/09/30 14:21:03;;;;;;;;;;;16.00;55.50;;;;;;4988910;28;19920;-79
2022/09/30 14:23:28;;;;;;;;;;;16.10;54.70;;;;;;4986359;28;19914;-78
2022/09/30 14:26:00;;;;;;;;;;;16.20;54.70;;;;;;4995566;28;20289;-78
2022/09/30 14:28:46;;;;;;;;;;;16.20;54.90;;;;;;4996956;28;19920;-79
2022/09/30 14:31:13;;;;;;;;;;;16.10;55.30;;;;;;4985758;28;19929;-79
2022/09/30 14:33:39;;;;;;;;;;;16.00;56.00;;;;;;4970066;28;20005;-79
2022/09/30 14:36:13;;;;;;;;;;;16.00;55.60;;;;;;4985159;28;19957;-79
2022/09/30 14:38:41;;;;;;;;;;;16.00;56.00;;;;;;4983489;28;19925;-79
2022/09/30 14:41:13;;;;;;;;;;;15.80;56.90;;;;;;4982916;28;20052;-78
2022/09/30 14:43:40;;;;;;;;;;;15.90;57.00;;;;;;4988234;28;19914;-79
2022/09/30 14:46:07;;;;;;;;;;;15.80;57.10;;;;;;4968249;28;20297;-79
2022/09/30 14:48:36;;;;;;;;;;;15.80;58.00;;;;;;4989153;28;19913;-80
2022/09/30 14:51:04;;;;;;;;;;;15.80;57.60;;;;;;4970533;28;20546;-80
2022/09/30 14:53:31;;;;;;;;;;;15.90;58.30;;;;;;4979666;28;19968;-79